Lessines, Belgium
Current Conditions -  °F | °C
As of 2:25 PM on Saturday 25 Oct 2014 (Local Time) from EBCV Reporting Station
Broken Clouds Broken Clouds  
Wind Chill: 59°   Ceiling: 6000
Heat Index: 59°   Visibility: 6mi
Dew Point: 52°   Wind: 8mph
Humidity: 77%   Direction: 280°W
Pressure: 30.12"   Gusts: NA
Location:  50.71°N, 3.84°E
Report Text: EBCV 251225Z AUTO 28007KT 9999 FEW011/// SCT028/// BKN060/// 15/11 Q1020 BLU
Loading
Personal Weather Stations






























Interactive Weather Map
Tropical Storm Tracking
New forecast layout! Learn more

10-Day Weather Forecast

Advertisements
Track Severe Weather on mobile